0PN6 weather

Memmi Airport
Three Springs, Pennsylvania, United States

Public forecast

Using degrees Fahrenheit for public forecast. Weather courtesy of forecast.io.

Closest aviation weather report (METAR) to Memmi Airport

Closest report is Altoona Blair County Airport, 16.8 nm (31.2 km) WNW. Retrieved 2020/05/26 05:53 UTC (8 minutes ago):

KAOO 260553Z AUTO 00000KT 9SM CLR 16/14 A3018 RMK AO2 SLP213 T01610144 10228 20161 50001

Closest aviation forecast (TAF) to Memmi Airport

Closest forecast is Altoona Blair County Airport, 16.8 nm (31.2 km) WNW. Retrieved 2020/05/26 06:27 UTC (0 seconds ago):

TAF KAOO 260524Z 2606/2706 17006KT P6SM SKC FM260900 00000KT 3SM BR OVC010 FM261000 00000KT 1SM BR OVC007 FM261300 15005KT P6SM BKN025 FM261400 15006KT P6SM SKC